sensor_id;sensor_type;location;lat;lon;timestamp;temperature;humidity
65378;SHT31;51982;51.042;13.806;2023-02-28T00:00:13;3.83;76.65
65378;SHT31;51982;51.042;13.806;2023-02-28T00:02:40;3.75;76.89
65378;SHT31;51982;51.042;13.806;2023-02-28T00:05:07;3.78;76.93
65378;SHT31;51982;51.042;13.806;2023-02-28T00:07:33;3.72;76.97
65378;SHT31;51982;51.042;13.806;2023-02-28T00:09:59;3.69;76.80
65378;SHT31;51982;51.042;13.806;2023-02-28T00:12:25;3.66;77.00
65378;SHT31;51982;51.042;13.806;2023-02-28T00:14:50;3.59;77.14
65378;SHT31;51982;51.042;13.806;2023-02-28T00:17:16;3.52;77.14
65378;SHT31;51982;51.042;13.806;2023-02-28T00:19:43;3.52;77.32
65378;SHT31;51982;51.042;13.806;2023-02-28T00:22:08;3.49;77.20
65378;SHT31;51982;51.042;13.806;2023-02-28T00:24:33;3.46;77.27
65378;SHT31;51982;51.042;13.806;2023-02-28T00:26:58;3.52;77.25
65378;SHT31;51982;51.042;13.806;2023-02-28T00:29:24;3.56;77.13
65378;SHT31;51982;51.042;13.806;2023-02-28T00:31:49;3.62;77.37
65378;SHT31;51982;51.042;13.806;2023-02-28T00:34:14;3.62;77.41
65378;SHT31;51982;51.042;13.806;2023-02-28T00:36:39;3.65;77.40
65378;SHT31;51982;51.042;13.806;2023-02-28T00:39:08;3.62;77.35
65378;SHT31;51982;51.042;13.806;2023-02-28T00:41:34;3.65;77.23
65378;SHT31;51982;51.042;13.806;2023-02-28T00:43:59;3.69;77.22
65378;SHT31;51982;51.042;13.806;2023-02-28T00:46:24;3.72;76.85
65378;SHT31;51982;51.042;13.806;2023-02-28T00:48:49;3.79;76.68
65378;SHT31;51982;51.042;13.806;2023-02-28T00:51:14;3.78;76.82
65378;SHT31;51982;51.042;13.806;2023-02-28T00:53:40;3.75;76.74
65378;SHT31;51982;51.042;13.806;2023-02-28T00:56:05;3.66;76.80
65378;SHT31;51982;51.042;13.806;2023-02-28T00:58:30;3.68;76.73
65378;SHT31;51982;51.042;13.806;2023-02-28T01:00:56;3.66;76.43
65378;SHT31;51982;51.042;13.806;2023-02-28T01:03:21;3.71;76.42
65378;SHT31;51982;51.042;13.806;2023-02-28T01:05:47;3.69;76.46
65378;SHT31;51982;51.042;13.806;2023-02-28T01:08:13;3.66;76.66
65378;SHT31;51982;51.042;13.806;2023-02-28T01:10:39;3.69;76.82
65378;SHT31;51982;51.042;13.806;2023-02-28T01:13:04;3.71;77.04
65378;SHT31;51982;51.042;13.806;2023-02-28T01:15:30;3.69;77.11
65378;SHT31;51982;51.042;13.806;2023-02-28T01:17:57;3.72;77.00
65378;SHT31;51982;51.042;13.806;2023-02-28T01:20:22;3.69;76.99
65378;SHT31;51982;51.042;13.806;2023-02-28T01:22:47;3.71;77.09
65378;SHT31;51982;51.042;13.806;2023-02-28T01:25:12;3.72;76.96
65378;SHT31;51982;51.042;13.806;2023-02-28T01:27:38;3.73;76.99
65378;SHT31;51982;51.042;13.806;2023-02-28T01:30:05;3.75;76.95
65378;SHT31;51982;51.042;13.806;2023-02-28T01:32:30;3.65;76.97
65378;SHT31;51982;51.042;13.806;2023-02-28T01:34:56;3.61;76.94
65378;SHT31;51982;51.042;13.806;2023-02-28T01:37:21;3.61;76.72
65378;SHT31;51982;51.042;13.806;2023-02-28T01:39:46;3.61;76.67
65378;SHT31;51982;51.042;13.806;2023-02-28T01:42:11;3.63;76.67
65378;SHT31;51982;51.042;13.806;2023-02-28T01:47:21;3.58;76.73
65378;SHT31;51982;51.042;13.806;2023-02-28T01:49:48;3.61;76.86
65378;SHT31;51982;51.042;13.806;2023-02-28T01:52:14;3.61;76.84
65378;SHT31;51982;51.042;13.806;2023-02-28T01:54:45;3.59;76.89
65378;SHT31;51982;51.042;13.806;2023-02-28T01:57:17;3.58;77.12
65378;SHT31;51982;51.042;13.806;2023-02-28T02:00:00;3.59;76.89
65378;SHT31;51982;51.042;13.806;2023-02-28T02:02:30;3.56;76.98
65378;SHT31;51982;51.042;13.806;2023-02-28T02:07:33;3.46;77.11
65378;SHT31;51982;51.042;13.806;2023-02-28T02:10:11;3.49;77.25
65378;SHT31;51982;51.042;13.806;2023-02-28T02:13:01;3.48;77.17
65378;SHT31;51982;51.042;13.806;2023-02-28T02:15:53;3.49;77.42
65378;SHT31;51982;51.042;13.806;2023-02-28T02:18:38;3.51;76.95
65378;SHT31;51982;51.042;13.806;2023-02-28T02:24:33;3.49;76.81
65378;SHT31;51982;51.042;13.806;2023-02-28T02:27:33;3.49;77.05
65378;SHT31;51982;51.042;13.806;2023-02-28T02:30:40;3.34;77.31
65378;SHT31;51982;51.042;13.806;2023-02-28T02:36:13;3.43;77.41
65378;SHT31;51982;51.042;13.806;2023-02-28T02:38:54;3.41;77.43
65378;SHT31;51982;51.042;13.806;2023-02-28T02:41:33;3.38;77.36
65378;SHT31;51982;51.042;13.806;2023-02-28T02:44:10;3.36;77.48
65378;SHT31;51982;51.042;13.806;2023-02-28T02:46:44;3.30;77.73
65378;SHT31;51982;51.042;13.806;2023-02-28T02:49:16;3.31;77.51
65378;SHT31;51982;51.042;13.806;2023-02-28T02:51:44;3.28;77.55
65378;SHT31;51982;51.042;13.806;2023-02-28T02:54:19;3.34;77.81
65378;SHT31;51982;51.042;13.806;2023-02-28T02:56:47;3.32;77.96
65378;SHT31;51982;51.042;13.806;2023-02-28T02:59:16;3.28;77.90
65378;SHT31;51982;51.042;13.806;2023-02-28T03:01:48;3.28;77.55
65378;SHT31;51982;51.042;13.806;2023-02-28T03:04:20;3.30;77.62
65378;SHT31;51982;51.042;13.806;2023-02-28T03:06:46;3.25;77.53
65378;SHT31;51982;51.042;13.806;2023-02-28T03:09:12;3.20;77.89
65378;SHT31;51982;51.042;13.806;2023-02-28T03:11:38;3.21;77.96
65378;SHT31;51982;51.042;13.806;2023-02-28T03:17:14;3.14;77.99
65378;SHT31;51982;51.042;13.806;2023-02-28T03:19:56;3.14;77.87
65378;SHT31;51982;51.042;13.806;2023-02-28T03:22:42;3.11;77.81
65378;SHT31;51982;51.042;13.806;2023-02-28T03:25:20;3.01;78.01
65378;SHT31;51982;51.042;13.806;2023-02-28T03:30:38;2.90;77.85
65378;SHT31;51982;51.042;13.806;2023-02-28T03:33:28;2.90;78.00
65378;SHT31;51982;51.042;13.806;2023-02-28T03:35:58;2.86;78.08
65378;SHT31;51982;51.042;13.806;2023-02-28T03:38:31;2.79;78.25
65378;SHT31;51982;51.042;13.806;2023-02-28T03:41:05;2.79;78.12
65378;SHT31;51982;51.042;13.806;2023-02-28T03:43:34;2.76;78.38
65378;SHT31;51982;51.042;13.806;2023-02-28T03:46:04;2.75;78.20
65378;SHT31;51982;51.042;13.806;2023-02-28T03:48:47;2.69;78.31
65378;SHT31;51982;51.042;13.806;2023-02-28T03:51:17;2.67;78.49
65378;SHT31;51982;51.042;13.806;2023-02-28T03:54:08;2.70;78.48
65378;SHT31;51982;51.042;13.806;2023-02-28T03:56:36;2.66;78.37
65378;SHT31;51982;51.042;13.806;2023-02-28T03:59:16;2.61;78.46
65378;SHT31;51982;51.042;13.806;2023-02-28T04:01:48;2.57;78.49
65378;SHT31;51982;51.042;13.806;2023-02-28T04:04:15;2.59;78.71
65378;SHT31;51982;51.042;13.806;2023-02-28T04:06:41;2.54;78.72
65378;SHT31;51982;51.042;13.806;2023-02-28T04:09:10;2.53;78.90
65378;SHT31;51982;51.042;13.806;2023-02-28T04:11:38;2.50;78.95
65378;SHT31;51982;51.042;13.806;2023-02-28T04:14:05;2.45;78.97
65378;SHT31;51982;51.042;13.806;2023-02-28T04:16:35;2.42;79.13
65378;SHT31;51982;51.042;13.806;2023-02-28T04:19:02;2.40;79.37
65378;SHT31;51982;51.042;13.806;2023-02-28T04:21:38;2.40;79.38
65378;SHT31;51982;51.042;13.806;2023-02-28T04:24:08;2.40;79.32
65378;SHT31;51982;51.042;13.806;2023-02-28T04:26:38;2.39;79.25
65378;SHT31;51982;51.042;13.806;2023-02-28T04:29:05;2.35;79.24
65378;SHT31;51982;51.042;13.806;2023-02-28T04:31:30;2.35;79.10
65378;SHT31;51982;51.042;13.806;2023-02-28T04:33:56;2.30;79.46
65378;SHT31;51982;51.042;13.806;2023-02-28T04:36:21;2.22;79.70
65378;SHT31;51982;51.042;13.806;2023-02-28T04:38:48;2.15;79.79
65378;SHT31;51982;51.042;13.806;2023-02-28T04:41:14;2.21;79.74
65378;SHT31;51982;51.042;13.806;2023-02-28T04:43:39;2.21;79.68
65378;SHT31;51982;51.042;13.806;2023-02-28T04:46:05;2.22;79.72
65378;SHT31;51982;51.042;13.806;2023-02-28T04:48:34;2.19;79.55
65378;SHT31;51982;51.042;13.806;2023-02-28T04:51:08;2.21;79.66
65378;SHT31;51982;51.042;13.806;2023-02-28T04:53:34;2.18;79.84
65378;SHT31;51982;51.042;13.806;2023-02-28T04:56:00;2.16;79.80
65378;SHT31;51982;51.042;13.806;2023-02-28T04:58:26;2.18;79.67
65378;SHT31;51982;51.042;13.806;2023-02-28T05:00:53;2.15;79.55
65378;SHT31;51982;51.042;13.806;2023-02-28T05:03:19;2.14;79.48
65378;SHT31;51982;51.042;13.806;2023-02-28T05:05:46;2.06;79.54
65378;SHT31;51982;51.042;13.806;2023-02-28T05:08:11;2.11;79.72
65378;SHT31;51982;51.042;13.806;2023-02-28T05:10:36;2.06;79.36
65378;SHT31;51982;51.042;13.806;2023-02-28T05:13:02;2.06;79.45
65378;SHT31;51982;51.042;13.806;2023-02-28T05:15:27;2.04;79.31
65378;SHT31;51982;51.042;13.806;2023-02-28T05:17:52;2.04;79.54
65378;SHT31;51982;51.042;13.806;2023-02-28T05:20:18;2.01;79.56
65378;SHT31;51982;51.042;13.806;2023-02-28T05:22:43;2.01;79.51
65378;SHT31;51982;51.042;13.806;2023-02-28T05:25:19;1.95;79.47
65378;SHT31;51982;51.042;13.806;2023-02-28T05:27:45;1.95;79.56
65378;SHT31;51982;51.042;13.806;2023-02-28T05:30:10;1.89;79.53
65378;SHT31;51982;51.042;13.806;2023-02-28T05:32:39;1.93;79.65
65378;SHT31;51982;51.042;13.806;2023-02-28T05:35:09;1.91;79.49
65378;SHT31;51982;51.042;13.806;2023-02-28T05:37:34;1.88;79.45
65378;SHT31;51982;51.042;13.806;2023-02-28T05:39:59;1.88;79.44
65378;SHT31;51982;51.042;13.806;2023-02-28T05:42:24;1.85;79.51
65378;SHT31;51982;51.042;13.806;2023-02-28T05:44:50;1.88;79.37
65378;SHT31;51982;51.042;13.806;2023-02-28T05:47:15;1.86;79.37
65378;SHT31;51982;51.042;13.806;2023-02-28T05:49:41;1.88;79.43
65378;SHT31;51982;51.042;13.806;2023-02-28T05:52:07;1.86;79.38
65378;SHT31;51982;51.042;13.806;2023-02-28T05:54:32;1.88;79.42
65378;SHT31;51982;51.042;13.806;2023-02-28T05:56:57;1.88;79.37
65378;SHT31;51982;51.042;13.806;2023-02-28T05:59:22;1.88;79.53
65378;SHT31;51982;51.042;13.806;2023-02-28T06:01:48;1.88;79.52
65378;SHT31;51982;51.042;13.806;2023-02-28T06:04:15;1.89;79.42
65378;SHT31;51982;51.042;13.806;2023-02-28T06:06:43;1.93;79.28
65378;SHT31;51982;51.042;13.806;2023-02-28T06:09:09;1.88;79.15
65378;SHT31;51982;51.042;13.806;2023-02-28T06:11:35;1.84;79.26
65378;SHT31;51982;51.042;13.806;2023-02-28T06:14:01;1.88;79.28
65378;SHT31;51982;51.042;13.806;2023-02-28T06:16:27;1.94;79.37
65378;SHT31;51982;51.042;13.806;2023-02-28T06:18:53;2.02;79.26
65378;SHT31;51982;51.042;13.806;2023-02-28T06:21:23;2.06;79.24
65378;SHT31;51982;51.042;13.806;2023-02-28T06:23:49;2.08;78.96
65378;SHT31;51982;51.042;13.806;2023-02-28T06:26:15;2.09;78.97
65378;SHT31;51982;51.042;13.806;2023-02-28T06:28:40;2.14;78.88
65378;SHT31;51982;51.042;13.806;2023-02-28T06:31:11;2.12;78.83
65378;SHT31;51982;51.042;13.806;2023-02-28T06:33:37;2.15;78.89
65378;SHT31;51982;51.042;13.806;2023-02-28T06:36:04;2.12;78.74
65378;SHT31;51982;51.042;13.806;2023-02-28T06:38:30;2.12;78.93
65378;SHT31;51982;51.042;13.806;2023-02-28T06:40:56;2.14;78.77
65378;SHT31;51982;51.042;13.806;2023-02-28T06:43:22;2.11;78.83
65378;SHT31;51982;51.042;13.806;2023-02-28T06:45:48;2.12;78.90
65378;SHT31;51982;51.042;13.806;2023-02-28T06:48:13;2.21;78.82
65378;SHT31;51982;51.042;13.806;2023-02-28T06:50:38;2.30;78.68
65378;SHT31;51982;51.042;13.806;2023-02-28T06:53:03;2.40;78.42
65378;SHT31;51982;51.042;13.806;2023-02-28T06:55:29;2.47;78.01
65378;SHT31;51982;51.042;13.806;2023-02-28T06:57:54;2.59;77.81
65378;SHT31;51982;51.042;13.806;2023-02-28T07:00:22;2.70;77.56
65378;SHT31;51982;51.042;13.806;2023-02-28T07:02:47;2.80;77.01
65378;SHT31;51982;51.042;13.806;2023-02-28T07:05:13;2.91;76.81
65378;SHT31;51982;51.042;13.806;2023-02-28T07:07:39;3.07;76.39
65378;SHT31;51982;51.042;13.806;2023-02-28T07:10:10;3.20;75.63
65378;SHT31;51982;51.042;13.806;2023-02-28T07:12:36;3.28;75.54
65378;SHT31;51982;51.042;13.806;2023-02-28T07:15:02;3.22;75.38
65378;SHT31;51982;51.042;13.806;2023-02-28T07:17:28;3.11;75.63
65378;SHT31;51982;51.042;13.806;2023-02-28T07:19:53;3.07;75.80
65378;SHT31;51982;51.042;13.806;2023-02-28T07:22:18;2.98;75.84
65378;SHT31;51982;51.042;13.806;2023-02-28T07:24:44;2.91;75.98
65378;SHT31;51982;51.042;13.806;2023-02-28T07:27:09;2.98;76.24
65378;SHT31;51982;51.042;13.806;2023-02-28T07:29:34;3.04;76.21
65378;SHT31;51982;51.042;13.806;2023-02-28T07:31:59;3.10;75.83
65378;SHT31;51982;51.042;13.806;2023-02-28T07:34:25;3.05;75.33
65378;SHT31;51982;51.042;13.806;2023-02-28T07:36:53;3.07;75.19
65378;SHT31;51982;51.042;13.806;2023-02-28T07:39:19;3.18;74.96
65378;SHT31;51982;51.042;13.806;2023-02-28T07:41:44;3.27;74.54
65378;SHT31;51982;51.042;13.806;2023-02-28T07:44:11;3.31;74.42
65378;SHT31;51982;51.042;13.806;2023-02-28T07:46:36;3.28;74.56
65378;SHT31;51982;51.042;13.806;2023-02-28T07:49:02;3.20;74.48
65378;SHT31;51982;51.042;13.806;2023-02-28T07:51:29;3.24;74.78
65378;SHT31;51982;51.042;13.806;2023-02-28T07:53:54;3.21;74.25
65378;SHT31;51982;51.042;13.806;2023-02-28T07:56:19;3.30;74.60
65378;SHT31;51982;51.042;13.806;2023-02-28T07:58:44;3.49;74.70
65378;SHT31;51982;51.042;13.806;2023-02-28T08:01:10;3.65;74.54
65378;SHT31;51982;51.042;13.806;2023-02-28T08:03:37;3.73;74.25
65378;SHT31;51982;51.042;13.806;2023-02-28T08:06:04;3.69;74.38
65378;SHT31;51982;51.042;13.806;2023-02-28T08:08:30;3.71;74.27
65378;SHT31;51982;51.042;13.806;2023-02-28T08:10:58;3.75;74.00
65378;SHT31;51982;51.042;13.806;2023-02-28T08:13:27;3.79;73.94
65378;SHT31;51982;51.042;13.806;2023-02-28T08:15:54;3.82;74.28
65378;SHT31;51982;51.042;13.806;2023-02-28T08:18:20;3.92;73.92
65378;SHT31;51982;51.042;13.806;2023-02-28T08:20:45;4.03;73.79
65378;SHT31;51982;51.042;13.806;2023-02-28T08:23:10;4.11;73.56
65378;SHT31;51982;51.042;13.806;2023-02-28T08:25:38;4.20;73.30
65378;SHT31;51982;51.042;13.806;2023-02-28T08:28:04;4.32;73.19
65378;SHT31;51982;51.042;13.806;2023-02-28T08:30:29;4.43;73.13
65378;SHT31;51982;51.042;13.806;2023-02-28T08:32:54;4.36;72.34
65378;SHT31;51982;51.042;13.806;2023-02-28T08:35:21;4.41;72.34
65378;SHT31;51982;51.042;13.806;2023-02-28T08:37:48;4.44;72.49
65378;SHT31;51982;51.042;13.806;2023-02-28T08:40:13;4.51;72.02
65378;SHT31;51982;51.042;13.806;2023-02-28T08:42:44;4.61;72.42
65378;SHT31;51982;51.042;13.806;2023-02-28T08:45:10;4.71;72.27
65378;SHT31;51982;51.042;13.806;2023-02-28T08:47:35;4.75;72.36
65378;SHT31;51982;51.042;13.806;2023-02-28T08:50:00;4.92;72.37
65378;SHT31;51982;51.042;13.806;2023-02-28T08:52:26;5.04;70.82
65378;SHT31;51982;51.042;13.806;2023-02-28T08:54:51;5.16;70.82
65378;SHT31;51982;51.042;13.806;2023-02-28T08:57:16;5.29;70.84
65378;SHT31;51982;51.042;13.806;2023-02-28T08:59:41;5.36;71.24
65378;SHT31;51982;51.042;13.806;2023-02-28T09:02:08;5.46;71.10
65378;SHT31;51982;51.042;13.806;2023-02-28T09:04:34;5.46;71.01
65378;SHT31;51982;51.042;13.806;2023-02-28T09:06:59;5.53;70.63
65378;SHT31;51982;51.042;13.806;2023-02-28T09:09:24;5.67;70.55
65378;SHT31;51982;51.042;13.806;2023-02-28T09:11:50;5.75;70.50
65378;SHT31;51982;51.042;13.806;2023-02-28T09:14:15;5.83;70.58
65378;SHT31;51982;51.042;13.806;2023-02-28T09:16:42;5.87;70.05
65378;SHT31;51982;51.042;13.806;2023-02-28T09:19:10;5.90;70.65
65378;SHT31;51982;51.042;13.806;2023-02-28T09:21:36;5.95;69.18
65378;SHT31;51982;51.042;13.806;2023-02-28T09:24:01;5.74;66.48
65378;SHT31;51982;51.042;13.806;2023-02-28T09:26:27;5.51;66.55
65378;SHT31;51982;51.042;13.806;2023-02-28T09:28:53;5.46;66.83
65378;SHT31;51982;51.042;13.806;2023-02-28T09:31:22;5.42;66.13
65378;SHT31;51982;51.042;13.806;2023-02-28T09:33:52;5.16;65.60
65378;SHT31;51982;51.042;13.806;2023-02-28T09:36:18;5.06;65.29
65378;SHT31;51982;51.042;13.806;2023-02-28T09:38:44;4.88;65.03
65378;SHT31;51982;51.042;13.806;2023-02-28T09:41:16;4.72;65.45
65378;SHT31;51982;51.042;13.806;2023-02-28T09:43:50;4.72;65.77
65378;SHT31;51982;51.042;13.806;2023-02-28T09:46:40;4.43;64.36
65378;SHT31;51982;51.042;13.806;2023-02-28T09:49:12;4.48;65.38
65378;SHT31;51982;51.042;13.806;2023-02-28T09:52:00;4.58;64.82
65378;SHT31;51982;51.042;13.806;2023-02-28T09:54:30;4.74;65.72
65378;SHT31;51982;51.042;13.806;2023-02-28T10:00:18;4.65;64.50
65378;SHT31;51982;51.042;13.806;2023-02-28T10:05:51;4.74;64.11
65378;SHT31;51982;51.042;13.806;2023-02-28T10:08:23;4.87;64.51
65378;SHT31;51982;51.042;13.806;2023-02-28T10:10:53;4.91;64.39
65378;SHT31;51982;51.042;13.806;2023-02-28T10:13:33;4.78;64.00
65378;SHT31;51982;51.042;13.806;2023-02-28T10:16:03;4.87;64.35
65378;SHT31;51982;51.042;13.806;2023-02-28T10:18:52;4.96;64.36
65378;SHT31;51982;51.042;13.806;2023-02-28T10:21:24;4.93;63.20
65378;SHT31;51982;51.042;13.806;2023-02-28T10:23:54;5.02;63.61
65378;SHT31;51982;51.042;13.806;2023-02-28T10:26:21;5.00;63.62
65378;SHT31;51982;51.042;13.806;2023-02-28T10:28:46;5.11;64.34
65378;SHT31;51982;51.042;13.806;2023-02-28T10:31:19;4.89;64.36
65378;SHT31;51982;51.042;13.806;2023-02-28T10:33:45;4.91;64.01
65378;SHT31;51982;51.042;13.806;2023-02-28T10:36:15;4.79;63.68
65378;SHT31;51982;51.042;13.806;2023-02-28T10:38:41;4.67;63.88
65378;SHT31;51982;51.042;13.806;2023-02-28T10:43:32;4.84;64.02
65378;SHT31;51982;51.042;13.806;2023-02-28T10:46:12;4.77;63.47
65378;SHT31;51982;51.042;13.806;2023-02-28T10:48:58;4.67;63.96
65378;SHT31;51982;51.042;13.806;2023-02-28T10:51:25;4.74;63.67
65378;SHT31;51982;51.042;13.806;2023-02-28T10:53:59;4.98;63.42
65378;SHT31;51982;51.042;13.806;2023-02-28T10:56:25;4.96;63.07
65378;SHT31;51982;51.042;13.806;2023-02-28T11:01:39;5.51;63.23
65378;SHT31;51982;51.042;13.806;2023-02-28T11:04:19;5.47;62.62
65378;SHT31;51982;51.042;13.806;2023-02-28T11:06:46;5.61;62.48
65378;SHT31;51982;51.042;13.806;2023-02-28T11:09:23;5.53;62.94
65378;SHT31;51982;51.042;13.806;2023-02-28T11:11:49;5.51;63.32
65378;SHT31;51982;51.042;13.806;2023-02-28T11:14:22;5.35;63.08
65378;SHT31;51982;51.042;13.806;2023-02-28T11:16:49;5.39;63.16
65378;SHT31;51982;51.042;13.806;2023-02-28T11:19:33;5.25;63.27
65378;SHT31;51982;51.042;13.806;2023-02-28T11:22:01;5.26;64.23
65378;SHT31;51982;51.042;13.806;2023-02-28T11:24:34;4.92;62.86
65378;SHT31;51982;51.042;13.806;2023-02-28T11:27:00;4.91;62.65
65378;SHT31;51982;51.042;13.806;2023-02-28T11:29:28;5.02;63.52
65378;SHT31;51982;51.042;13.806;2023-02-28T11:32:15;4.93;63.25
65378;SHT31;51982;51.042;13.806;2023-02-28T11:34:41;5.04;62.96
65378;SHT31;51982;51.042;13.806;2023-02-28T11:37:12;5.05;63.26
65378;SHT31;51982;51.042;13.806;2023-02-28T11:39:38;5.09;63.10
65378;SHT31;51982;51.042;13.806;2023-02-28T11:50:52;5.13;62.75
65378;SHT31;51982;51.042;13.806;2023-02-28T11:56:36;5.33;62.45
65378;SHT31;51982;51.042;13.806;2023-02-28T12:02:22;5.16;62.54
65378;SHT31;51982;51.042;13.806;2023-02-28T12:10:24;5.39;62.35
65378;SHT31;51982;51.042;13.806;2023-02-28T12:13:06;5.29;62.35
65378;SHT31;51982;51.042;13.806;2023-02-28T12:21:11;5.43;62.28
65378;SHT31;51982;51.042;13.806;2023-02-28T12:29:01;5.70;62.77
65378;SHT31;51982;51.042;13.806;2023-02-28T12:31:33;5.67;62.50
65378;SHT31;51982;51.042;13.806;2023-02-28T12:34:04;5.56;61.99
65378;SHT31;51982;51.042;13.806;2023-02-28T12:36:33;5.60;62.82
65378;SHT31;51982;51.042;13.806;2023-02-28T12:39:26;5.74;63.54
65378;SHT31;51982;51.042;13.806;2023-02-28T12:41:56;5.81;63.42
65378;SHT31;51982;51.042;13.806;2023-02-28T12:44:34;5.75;62.88
65378;SHT31;51982;51.042;13.806;2023-02-28T12:47:05;5.71;62.28
65378;SHT31;51982;51.042;13.806;2023-02-28T12:49:41;5.56;62.65
65378;SHT31;51982;51.042;13.806;2023-02-28T12:52:11;5.54;61.61
65378;SHT31;51982;51.042;13.806;2023-02-28T12:54:51;5.56;62.35
65378;SHT31;51982;51.042;13.806;2023-02-28T12:57:37;5.54;62.48
65378;SHT31;51982;51.042;13.806;2023-02-28T13:00:25;5.67;62.47
65378;SHT31;51982;51.042;13.806;2023-02-28T13:03:28;5.67;61.52
65378;SHT31;51982;51.042;13.806;2023-02-28T13:06:20;5.84;62.25
65378;SHT31;51982;51.042;13.806;2023-02-28T13:09:08;5.63;62.67
65378;SHT31;51982;51.042;13.806;2023-02-28T13:11:46;5.64;62.89
65378;SHT31;51982;51.042;13.806;2023-02-28T13:14:20;5.38;63.15
65378;SHT31;51982;51.042;13.806;2023-02-28T13:19:22;5.22;63.78
65378;SHT31;51982;51.042;13.806;2023-02-28T13:21:50;5.25;63.67
65378;SHT31;51982;51.042;13.806;2023-02-28T13:29:31;5.19;63.78
65378;SHT31;51982;51.042;13.806;2023-02-28T13:40:47;5.23;63.24
65378;SHT31;51982;51.042;13.806;2023-02-28T13:42:53;5.38;63.34
65378;SHT31;51982;51.042;13.806;2023-02-28T13:45:29;5.44;63.49
65378;SHT31;51982;51.042;13.806;2023-02-28T13:48:00;5.47;63.46
65378;SHT31;51982;51.042;13.806;2023-02-28T13:50:27;5.33;63.52
65378;SHT31;51982;51.042;13.806;2023-02-28T14:04:45;5.29;63.03
65378;SHT31;51982;51.042;13.806;2023-02-28T14:07:23;5.32;62.83
65378;SHT31;51982;51.042;13.806;2023-02-28T14:09:57;5.40;62.79
65378;SHT31;51982;51.042;13.806;2023-02-28T14:12:51;5.61;62.46
65378;SHT31;51982;51.042;13.806;2023-02-28T14:15:31;5.69;62.22
65378;SHT31;51982;51.042;13.806;2023-02-28T14:18:02;5.80;62.37
65378;SHT31;51982;51.042;13.806;2023-02-28T14:20:31;5.75;62.61
65378;SHT31;51982;51.042;13.806;2023-02-28T14:28:55;5.64;62.41
65378;SHT31;51982;51.042;13.806;2023-02-28T14:31:29;5.70;62.88
65378;SHT31;51982;51.042;13.806;2023-02-28T14:36:48;5.69;62.84
65378;SHT31;51982;51.042;13.806;2023-02-28T14:41:40;5.77;63.05
65378;SHT31;51982;51.042;13.806;2023-02-28T14:46:48;5.64;62.75
65378;SHT31;51982;51.042;13.806;2023-02-28T14:49:27;5.59;62.93
65378;SHT31;51982;51.042;13.806;2023-02-28T14:52:06;5.60;62.98
65378;SHT31;51982;51.042;13.806;2023-02-28T14:54:34;5.60;63.35
65378;SHT31;51982;51.042;13.806;2023-02-28T14:57:00;5.56;63.69
65378;SHT31;51982;51.042;13.806;2023-02-28T14:59:33;5.51;63.75
65378;SHT31;51982;51.042;13.806;2023-02-28T15:04:41;5.44;63.65
65378;SHT31;51982;51.042;13.806;2023-02-28T15:07:13;5.38;63.98
65378;SHT31;51982;51.042;13.806;2023-02-28T15:09:38;5.40;63.91
65378;SHT31;51982;51.042;13.806;2023-02-28T15:12:04;5.35;63.92
65378;SHT31;51982;51.042;13.806;2023-02-28T15:14:30;5.26;63.92
65378;SHT31;51982;51.042;13.806;2023-02-28T15:16:59;5.28;64.12
65378;SHT31;51982;51.042;13.806;2023-02-28T15:19:29;5.16;64.13
65378;SHT31;51982;51.042;13.806;2023-02-28T15:21:59;5.12;64.09
65378;SHT31;51982;51.042;13.806;2023-02-28T15:24:45;5.08;64.14
65378;SHT31;51982;51.042;13.806;2023-02-28T15:27:31;5.02;64.33
65378;SHT31;51982;51.042;13.806;2023-02-28T15:30:05;5.04;64.56
65378;SHT31;51982;51.042;13.806;2023-02-28T15:32:33;5.04;64.58
65378;SHT31;51982;51.042;13.806;2023-02-28T15:35:16;5.02;64.61
65378;SHT31;51982;51.042;13.806;2023-02-28T15:38:35;5.05;64.61
65378;SHT31;51982;51.042;13.806;2023-02-28T15:40:46;5.12;65.06
65378;SHT31;51982;51.042;13.806;2023-02-28T15:43:30;5.11;64.65
65378;SHT31;51982;51.042;13.806;2023-02-28T15:46:09;4.96;64.49
65378;SHT31;51982;51.042;13.806;2023-02-28T15:48:38;5.05;64.80
65378;SHT31;51982;51.042;13.806;2023-02-28T15:51:24;5.04;64.67
65378;SHT31;51982;51.042;13.806;2023-02-28T15:53:56;5.00;64.90
65378;SHT31;51982;51.042;13.806;2023-02-28T15:56:30;4.98;64.88
65378;SHT31;51982;51.042;13.806;2023-02-28T15:58:57;4.98;64.84
65378;SHT31;51982;51.042;13.806;2023-02-28T16:01:25;4.98;65.02
65378;SHT31;51982;51.042;13.806;2023-02-28T16:03:55;5.02;64.98
65378;SHT31;51982;51.042;13.806;2023-02-28T16:06:39;5.00;65.22
65378;SHT31;51982;51.042;13.806;2023-02-28T16:09:09;4.96;64.97
65378;SHT31;51982;51.042;13.806;2023-02-28T16:11:38;4.95;65.38
65378;SHT31;51982;51.042;13.806;2023-02-28T16:14:04;4.96;65.39
65378;SHT31;51982;51.042;13.806;2023-02-28T16:16:30;4.98;65.51
65378;SHT31;51982;51.042;13.806;2023-02-28T16:18:56;4.93;65.41
65378;SHT31;51982;51.042;13.806;2023-02-28T16:21:21;4.95;65.84
65378;SHT31;51982;51.042;13.806;2023-02-28T16:23:47;4.95;65.84
65378;SHT31;51982;51.042;13.806;2023-02-28T16:26:19;4.89;65.71
65378;SHT31;51982;51.042;13.806;2023-02-28T16:28:46;4.88;65.83
65378;SHT31;51982;51.042;13.806;2023-02-28T16:31:12;4.87;65.92
65378;SHT31;51982;51.042;13.806;2023-02-28T16:33:42;4.82;66.21
65378;SHT31;51982;51.042;13.806;2023-02-28T16:36:13;4.81;65.99
65378;SHT31;51982;51.042;13.806;2023-02-28T16:38:38;4.78;66.38
65378;SHT31;51982;51.042;13.806;2023-02-28T16:41:05;4.74;66.68
65378;SHT31;51982;51.042;13.806;2023-02-28T16:43:30;4.72;66.62
65378;SHT31;51982;51.042;13.806;2023-02-28T16:45:56;4.71;66.84
65378;SHT31;51982;51.042;13.806;2023-02-28T16:48:23;4.69;67.12
65378;SHT31;51982;51.042;13.806;2023-02-28T16:50:48;4.67;67.42
65378;SHT31;51982;51.042;13.806;2023-02-28T16:53:13;4.61;67.59
65378;SHT31;51982;51.042;13.806;2023-02-28T16:55:39;4.60;67.59
65378;SHT31;51982;51.042;13.806;2023-02-28T16:58:04;4.55;67.72
65378;SHT31;51982;51.042;13.806;2023-02-28T17:00:31;4.51;67.98
65378;SHT31;51982;51.042;13.806;2023-02-28T17:02:57;4.50;68.25
65378;SHT31;51982;51.042;13.806;2023-02-28T17:05:24;4.45;68.48
65378;SHT31;51982;51.042;13.806;2023-02-28T17:07:50;4.41;68.63
65378;SHT31;51982;51.042;13.806;2023-02-28T17:10:22;4.41;68.46
65378;SHT31;51982;51.042;13.806;2023-02-28T17:12:49;4.40;68.78
65378;SHT31;51982;51.042;13.806;2023-02-28T17:15:16;4.37;69.03
65378;SHT31;51982;51.042;13.806;2023-02-28T17:17:42;4.33;69.44
65378;SHT31;51982;51.042;13.806;2023-02-28T17:20:17;4.30;69.43
65378;SHT31;51982;51.042;13.806;2023-02-28T17:22:43;4.33;69.94
65378;SHT31;51982;51.042;13.806;2023-02-28T17:25:09;4.26;70.12
65378;SHT31;51982;51.042;13.806;2023-02-28T17:27:35;4.23;70.31
65378;SHT31;51982;51.042;13.806;2023-02-28T17:30:00;4.23;70.57